Time;durP1;ratioP1;P1;durP2;ratioP2;P2;SDS_P1;SDS_P2;PMS_P1;PMS_P2;Temp;Humidity;BMP_temperature;BMP_pressure;BME280_temperature;BME280_humidity;BME280_pressure;Samples;Min_cycle;Max_cycle;Signal;HPM_P1;HPM_P2
2023/06/19 00:00:15;;;;;;;4.40;4.00;;;;;;;;;;507780;28;1439;-75
2023/06/19 00:00:31;;;;;;;4.30;3.90;;;;;;;;;;509520;28;1559;-75
2023/06/19 00:00:46;;;;;;;4.13;3.78;;;;;;;;;;509862;28;1348;-76
2023/06/19 00:01:02;;;;;;;4.28;3.97;;;;;;;;;;509429;28;1392;-76
2023/06/19 00:01:18;;;;;;;4.65;4.28;;;;;;;;;;507249;28;1280;-76
2023/06/19 00:01:36;;;;;;;4.50;4.10;;;;;;;;;;509039;28;1323;-76
2023/06/19 00:01:52;;;;;;;4.35;3.95;;;;;;;;;;509839;28;1223;-75
2023/06/19 00:02:08;;;;;;;4.40;4.00;;;;;;;;;;509331;28;1227;-76
2023/06/19 00:02:23;;;;;;;4.50;4.10;;;;;;;;;;509841;28;1244;-75
2023/06/19 00:02:40;;;;;;;4.30;4.00;;;;;;;;;;508378;28;1196;-75
2023/06/19 00:02:55;;;;;;;4.40;4.00;;;;;;;;;;509678;28;1446;-76
2023/06/19 00:03:11;;;;;;;4.40;4.00;;;;;;;;;;509446;28;1437;-75
2023/06/19 00:03:27;;;;;;;4.50;4.10;;;;;;;;;;509402;28;1208;-76
2023/06/19 00:03:43;;;;;;;4.37;4.07;;;;;;;;;;509358;28;1324;-75
2023/06/19 00:03:59;;;;;;;4.22;3.83;;;;;;;;;;509531;28;1139;-75
2023/06/19 00:04:14;;;;;;;4.20;3.80;;;;;;;;;;511114;28;1285;-75
2023/06/19 00:04:41;;;;;;;4.27;3.97;;;;;;;;;;509553;28;1336;-74
2023/06/19 00:04:57;;;;;;;4.68;4.28;;;;;;;;;;508034;28;1390;-75
2023/06/19 00:05:15;;;;;;;4.75;4.25;;;;;;;;;;506982;28;1042;-76
2023/06/19 00:05:31;;;;;;;4.75;4.13;;;;;;;;;;507701;28;1183;-75
2023/06/19 00:05:47;;;;;;;4.90;4.40;;;;;;;;;;506393;28;1265;-76
2023/06/19 00:06:03;;;;;;;5.03;4.63;;;;;;;;;;504833;28;1253;-75
2023/06/19 00:06:19;;;;;;;5.28;4.78;;;;;;;;;;504503;28;1962;-76
2023/06/19 00:06:35;;;;;;;5.57;4.82;;;;;;;;;;505075;28;1461;-76
2023/06/19 00:06:51;;;;;;;4.88;4.47;;;;;;;;;;506027;28;1145;-76
2023/06/19 00:07:06;;;;;;;4.65;4.25;;;;;;;;;;507882;28;1522;-76
2023/06/19 00:07:22;;;;;;;4.63;4.23;;;;;;;;;;509022;28;1551;-76
2023/06/19 00:07:38;;;;;;;4.65;4.25;;;;;;;;;;510302;28;1272;-76
2023/06/19 00:07:57;;;;;;;4.40;4.00;;;;;;;;;;511291;28;1366;-76
2023/06/19 00:08:15;;;;;;;4.10;3.80;;;;;;;;;;512811;28;1382;-75
2023/06/19 00:08:33;;;;;;;4.47;4.05;;;;;;;;;;511428;28;1250;-75
2023/06/19 00:08:49;;;;;;;5.45;4.25;;;;;;;;;;507770;28;1204;-75
2023/06/19 00:09:06;;;;;;;5.05;4.13;;;;;;;;;;508227;28;1292;-75
2023/06/19 00:09:22;;;;;;;4.60;4.20;;;;;;;;;;507585;28;1299;-76
2023/06/19 00:09:46;;;;;;;4.60;4.20;;;;;;;;;;508880;28;1383;-76
2023/06/19 00:10:02;;;;;;;4.30;3.90;;;;;;;;;;509200;28;1020;-75
2023/06/19 00:10:18;;;;;;;4.22;3.92;;;;;;;;;;507854;28;1322;-75
2023/06/19 00:10:34;;;;;;;5.07;4.18;;;;;;;;;;508197;28;1362;-75
2023/06/19 00:10:49;;;;;;;5.07;4.13;;;;;;;;;;509823;28;1317;-76
2023/06/19 00:11:05;;;;;;;4.50;4.10;;;;;;;;;;507482;28;1322;-75
2023/06/19 00:11:21;;;;;;;4.75;4.30;;;;;;;;;;505927;28;1273;-76
2023/06/19 00:11:37;;;;;;;5.28;4.40;;;;;;;;;;505588;28;1284;-76
2023/06/19 00:11:52;;;;;;;4.90;4.50;;;;;;;;;;506841;28;1150;-75
2023/06/19 00:12:09;;;;;;;5.15;4.70;;;;;;;;;;507622;28;1640;-76
2023/06/19 00:12:24;;;;;;;5.20;4.70;;;;;;;;;;506961;28;1295;-75
2023/06/19 00:12:40;;;;;;;4.82;4.40;;;;;;;;;;509124;28;1466;-75
2023/06/19 00:12:56;;;;;;;5.00;4.50;;;;;;;;;;509691;28;916;-75
2023/06/19 00:13:11;;;;;;;4.77;4.37;;;;;;;;;;509413;28;1237;-76
2023/06/19 00:13:27;;;;;;;4.32;4.03;;;;;;;;;;508449;28;1237;-75
2023/06/19 00:13:43;;;;;;;4.30;4.00;;;;;;;;;;507940;28;987;-76
2023/06/19 00:14:00;;;;;;;4.30;4.00;;;;;;;;;;507466;28;1420;-76
2023/06/19 00:14:17;;;;;;;4.55;4.15;;;;;;;;;;507454;28;1311;-75
2023/06/19 00:14:33;;;;;;;4.85;4.35;;;;;;;;;;507535;28;1371;-75
2023/06/19 00:14:49;;;;;;;5.15;4.68;;;;;;;;;;506810;28;1338;-75
2023/06/19 00:15:05;;;;;;;5.30;4.80;;;;;;;;;;506282;28;967;-76
2023/06/19 00:15:21;;;;;;;5.13;4.63;;;;;;;;;;507630;28;1654;-76
2023/06/19 00:15:36;;;;;;;5.05;4.55;;;;;;;;;;509348;28;1385;-75
2023/06/19 00:15:52;;;;;;;5.75;4.50;;;;;;;;;;509576;28;1417;-77
2023/06/19 00:16:08;;;;;;;5.60;4.55;;;;;;;;;;508581;28;1453;-75
2023/06/19 00:16:25;;;;;;;4.75;4.28;;;;;;;;;;509615;28;1393;-76
2023/06/19 00:16:41;;;;;;;4.38;3.97;;;;;;;;;;509614;28;1382;-76
2023/06/19 00:17:00;;;;;;;4.38;4.00;;;;;;;;;;510221;28;1189;-74
2023/06/19 00:17:16;;;;;;;4.70;4.30;;;;;;;;;;509530;28;1046;-75
2023/06/19 00:17:37;;;;;;;4.68;4.28;;;;;;;;;;506404;28;1311;-77
2023/06/19 00:18:13;;;;;;;4.82;4.40;;;;;;;;;;508951;28;1348;-75
2023/06/19 00:18:29;;;;;;;5.00;4.60;;;;;;;;;;508286;28;1322;-76
2023/06/19 00:18:48;;;;;;;5.00;4.60;;;;;;;;;;508380;28;1335;-75
2023/06/19 00:19:06;;;;;;;4.80;4.40;;;;;;;;;;507382;28;1221;-75
2023/06/19 00:19:22;;;;;;;4.82;4.43;;;;;;;;;;508149;28;1352;-75
2023/06/19 00:19:38;;;;;;;5.20;4.70;;;;;;;;;;509386;28;1426;-76
2023/06/19 00:19:54;;;;;;;5.10;4.60;;;;;;;;;;507601;28;1439;-76
2023/06/19 00:20:10;;;;;;;4.82;4.32;;;;;;;;;;509365;28;1372;-76
2023/06/19 00:20:28;;;;;;;4.70;4.30;;;;;;;;;;507042;28;1437;-76
2023/06/19 00:20:45;;;;;;;4.45;4.05;;;;;;;;;;505752;28;1390;-75
2023/06/19 00:21:01;;;;;;;4.38;4.00;;;;;;;;;;507758;28;1415;-76
2023/06/19 00:21:17;;;;;;;4.10;3.80;;;;;;;;;;510808;28;1291;-75
2023/06/19 00:21:33;;;;;;;4.30;3.90;;;;;;;;;;510538;28;1367;-75
2023/06/19 00:21:49;;;;;;;4.60;4.20;;;;;;;;;;512262;28;1349;-75
2023/06/19 00:22:05;;;;;;;4.72;4.22;;;;;;;;;;509389;28;1295;-75
2023/06/19 00:22:21;;;;;;;4.53;4.13;;;;;;;;;;508997;28;1378;-75
2023/06/19 00:22:36;;;;;;;4.50;4.10;;;;;;;;;;507733;28;1286;-76
2023/06/19 00:22:53;;;;;;;4.50;4.10;;;;;;;;;;507826;28;1231;-75
2023/06/19 00:23:11;;;;;;;4.70;4.30;;;;;;;;;;508678;28;1363;-75
2023/06/19 00:23:26;;;;;;;4.60;4.20;;;;;;;;;;509195;28;1353;-75
2023/06/19 00:23:42;;;;;;;4.50;4.10;;;;;;;;;;509389;28;1283;-75
2023/06/19 00:23:58;;;;;;;4.70;4.30;;;;;;;;;;512001;28;1276;-75
2023/06/19 00:24:13;;;;;;;5.50;4.40;;;;;;;;;;509446;28;1345;-75
2023/06/19 00:24:29;;;;;;;5.50;4.40;;;;;;;;;;508906;28;1315;-75
2023/06/19 00:24:44;;;;;;;4.57;4.18;;;;;;;;;;509362;28;1383;-74
2023/06/19 00:25:00;;;;;;;4.47;4.07;;;;;;;;;;509432;28;972;-75
2023/06/19 00:25:16;;;;;;;4.40;4.00;;;;;;;;;;509528;28;1394;-75
2023/06/19 00:25:31;;;;;;;4.57;4.13;;;;;;;;;;507320;28;1345;-75
2023/06/19 00:25:47;;;;;;;5.18;4.30;;;;;;;;;;505854;28;1335;-76
2023/06/19 00:26:03;;;;;;;7.35;4.60;;;;;;;;;;504437;28;1375;-75
2023/06/19 00:26:22;;;;;;;6.60;4.57;;;;;;;;;;502408;29;2029;-75
2023/06/19 00:26:38;;;;;;;4.70;4.22;;;;;;;;;;503275;28;1376;-75
2023/06/19 00:26:53;;;;;;;5.40;4.30;;;;;;;;;;505302;28;1325;-76
2023/06/19 00:27:09;;;;;;;4.82;4.32;;;;;;;;;;506903;28;1324;-75
2023/06/19 00:27:24;;;;;;;4.60;4.20;;;;;;;;;;507010;28;1166;-76
2023/06/19 00:27:40;;;;;;;4.70;4.30;;;;;;;;;;506757;28;1540;-75
2023/06/19 00:27:56;;;;;;;4.70;4.30;;;;;;;;;;509408;28;1423;-76
2023/06/19 00:28:13;;;;;;;4.68;4.18;;;;;;;;;;509997;28;907;-76
2023/06/19 00:28:30;;;;;;;4.60;4.20;;;;;;;;;;509915;28;1350;-75
2023/06/19 00:28:47;;;;;;;4.50;4.10;;;;;;;;;;508991;28;1506;-75
2023/06/19 00:29:03;;;;;;;4.57;4.18;;;;;;;;;;509217;28;1334;-76
2023/06/19 00:29:27;;;;;;;4.80;4.40;;;;;;;;;;509175;28;1399;-75
2023/06/19 00:29:45;;;;;;;4.55;4.18;;;;;;;;;;506401;28;1560;-75
2023/06/19 00:30:02;;;;;;;4.82;4.32;;;;;;;;;;506441;28;1184;-75
2023/06/19 00:30:17;;;;;;;4.88;4.43;;;;;;;;;;507448;28;1431;-74
2023/06/19 00:31:14;;;;;;;5.10;4.60;;;;;;;;;;505792;28;1388;-76
2023/06/19 00:31:52;;;;;;;5.72;4.47;;;;;;;;;;506980;28;1332;-75
2023/06/19 00:32:08;;;;;;;4.70;4.30;;;;;;;;;;509788;28;1371;-75
2023/06/19 00:32:24;;;;;;;4.50;4.10;;;;;;;;;;508503;28;1249;-75
2023/06/19 00:32:49;;;;;;;4.40;4.00;;;;;;;;;;509390;28;1232;-74
2023/06/19 00:33:05;;;;;;;4.75;4.30;;;;;;;;;;509120;28;1446;-75
2023/06/19 00:33:21;;;;;;;4.85;4.45;;;;;;;;;;509104;28;1066;-75
2023/06/19 00:34:18;;;;;;;5.03;4.57;;;;;;;;;;508734;28;1357;-75
2023/06/19 00:34:33;;;;;;;5.00;4.50;;;;;;;;;;509770;28;1354;-75
2023/06/19 00:34:49;;;;;;;4.95;4.45;;;;;;;;;;509282;28;1301;-77
2023/06/19 00:35:05;;;;;;;5.00;4.50;;;;;;;;;;507770;28;1349;-74
2023/06/19 00:35:22;;;;;;;4.85;4.40;;;;;;;;;;507903;28;1230;-75
2023/06/19 00:35:37;;;;;;;4.88;4.40;;;;;;;;;;509047;28;1372;-74
2023/06/19 00:35:55;;;;;;;6.50;4.47;;;;;;;;;;509327;28;1160;-76
2023/06/19 00:36:15;;;;;;;6.47;4.28;;;;;;;;;;507683;28;1291;-77
2023/06/19 00:36:30;;;;;;;5.15;4.38;;;;;;;;;;509670;28;1157;-76
2023/06/19 00:36:46;;;;;;;4.93;4.50;;;;;;;;;;512484;28;1556;-76
2023/06/19 00:37:03;;;;;;;4.85;4.45;;;;;;;;;;511013;28;1362;-76
2023/06/19 00:37:18;;;;;;;4.93;4.43;;;;;;;;;;509956;28;1446;-77
2023/06/19 00:37:34;;;;;;;4.77;4.37;;;;;;;;;;509735;28;1336;-77
2023/06/19 00:37:50;;;;;;;4.53;4.13;;;;;;;;;;508959;28;1429;-75
2023/06/19 00:38:08;;;;;;;4.83;4.30;;;;;;;;;;507467;28;1249;-76
2023/06/19 00:38:23;;;;;;;5.05;4.60;;;;;;;;;;507806;28;1003;-76
2023/06/19 00:38:39;;;;;;;5.00;4.60;;;;;;;;;;506435;28;1353;-76
2023/06/19 00:38:56;;;;;;;5.03;4.53;;;;;;;;;;506707;28;1352;-76
2023/06/19 00:39:12;;;;;;;4.75;4.30;;;;;;;;;;507401;28;1051;-76
2023/06/19 00:39:28;;;;;;;4.53;4.13;;;;;;;;;;509521;28;956;-74
2023/06/19 00:39:44;;;;;;;4.93;4.35;;;;;;;;;;509529;28;954;-76
2023/06/19 00:39:59;;;;;;;5.00;4.40;;;;;;;;;;508199;28;1402;-76
2023/06/19 00:40:24;;;;;;;4.70;4.30;;;;;;;;;;506553;28;1372;-75
2023/06/19 00:40:40;;;;;;;5.10;4.60;;;;;;;;;;508587;28;1417;-76
2023/06/19 00:40:56;;;;;;;4.60;4.20;;;;;;;;;;508475;28;1233;-76
2023/06/19 00:41:11;;;;;;;4.70;4.30;;;;;;;;;;507680;28;1286;-76
2023/06/19 00:41:30;;;;;;;4.97;4.57;;;;;;;;;;509225;28;1155;-77
2023/06/19 00:41:48;;;;;;;4.60;4.20;;;;;;;;;;508403;28;1400;-76
2023/06/19 00:42:04;;;;;;;4.78;4.30;;;;;;;;;;509641;28;1103;-76
2023/06/19 00:42:19;;;;;;;5.10;4.40;;;;;;;;;;511304;28;1487;-74
2023/06/19 00:42:35;;;;;;;4.90;4.30;;;;;;;;;;510346;28;1461;-77
2023/06/19 00:42:50;;;;;;;4.60;4.10;;;;;;;;;;510493;28;1105;-76
2023/06/19 00:43:06;;;;;;;4.60;4.20;;;;;;;;;;510637;28;1074;-77
2023/06/19 00:43:22;;;;;;;4.80;4.40;;;;;;;;;;508404;28;1469;-76
2023/06/19 00:43:38;;;;;;;5.07;4.68;;;;;;;;;;508666;28;1511;-76
2023/06/19 00:43:54;;;;;;;4.90;4.50;;;;;;;;;;508895;28;1391;-76
2023/06/19 00:44:10;;;;;;;5.05;4.65;;;;;;;;;;509057;28;1439;-76
2023/06/19 00:44:25;;;;;;;5.27;4.77;;;;;;;;;;510707;28;1082;-76
2023/06/19 00:44:41;;;;;;;4.97;4.47;;;;;;;;;;511982;28;1116;-76
2023/06/19 00:44:57;;;;;;;4.75;4.35;;;;;;;;;;510861;28;1279;-75
2023/06/19 00:45:13;;;;;;;4.82;4.30;;;;;;;;;;511679;28;1042;-76
2023/06/19 00:45:29;;;;;;;5.30;4.30;;;;;;;;;;512440;28;1425;-76
2023/06/19 00:45:44;;;;;;;4.80;4.38;;;;;;;;;;510401;28;1319;-76
2023/06/19 00:46:02;;;;;;;4.80;4.40;;;;;;;;;;510254;28;1406;-74
2023/06/19 00:46:18;;;;;;;5.00;4.50;;;;;;;;;;510242;28;1378;-74
2023/06/19 00:46:37;;;;;;;5.55;4.50;;;;;;;;;;510373;28;1985;-76
2023/06/19 00:47:00;;;;;;;5.50;4.25;;;;;;;;;;508412;28;1520;-76
2023/06/19 00:47:16;;;;;;;4.70;4.20;;;;;;;;;;508844;28;1299;-76
2023/06/19 00:47:34;;;;;;;5.10;4.10;;;;;;;;;;510533;28;1461;-76
2023/06/19 00:47:50;;;;;;;5.28;4.20;;;;;;;;;;509320;28;1344;-76
2023/06/19 00:48:06;;;;;;;4.72;4.32;;;;;;;;;;507499;28;1351;-75
2023/06/19 00:48:22;;;;;;;4.60;4.20;;;;;;;;;;506860;28;1356;-76
2023/06/19 00:48:39;;;;;;;4.43;4.03;;;;;;;;;;509036;28;1248;-76
2023/06/19 00:48:57;;;;;;;4.68;4.25;;;;;;;;;;508930;28;963;-76
2023/06/19 00:49:18;;;;;;;4.97;4.18;;;;;;;;;;508410;28;1272;-76
2023/06/19 00:49:33;;;;;;;5.00;4.00;;;;;;;;;;508707;28;1500;-76
2023/06/19 00:49:50;;;;;;;4.68;4.28;;;;;;;;;;508654;28;1266;-76
2023/06/19 00:50:09;;;;;;;4.75;4.35;;;;;;;;;;508196;28;1312;-76
2023/06/19 00:50:26;;;;;;;4.57;4.18;;;;;;;;;;509631;28;1142;-76
2023/06/19 00:50:44;;;;;;;4.18;3.88;;;;;;;;;;508919;28;1503;-75
2023/06/19 00:51:00;;;;;;;4.40;4.00;;;;;;;;;;509299;28;1622;-75
2023/06/19 00:51:21;;;;;;;4.50;4.10;;;;;;;;;;510176;28;1417;-76
2023/06/19 00:51:38;;;;;;;4.50;4.10;;;;;;;;;;509548;28;1510;-76
2023/06/19 00:52:34;;;;;;;4.43;4.03;;;;;;;;;;508793;28;939;-76
2023/06/19 00:52:56;;;;;;;4.15;3.85;;;;;;;;;;510077;28;1333;-75
2023/06/19 00:53:34;;;;;;;4.65;4.07;;;;;;;;;;510097;28;1472;-76
2023/06/19 00:53:49;;;;;;;4.25;3.90;;;;;;;;;;510125;28;1491;-75
2023/06/19 00:54:06;;;;;;;4.30;3.90;;;;;;;;;;510535;28;1322;-75
2023/06/19 00:54:22;;;;;;;4.40;4.00;;;;;;;;;;508226;28;1302;-75
2023/06/19 00:54:38;;;;;;;4.10;3.80;;;;;;;;;;508271;28;1161;-75
2023/06/19 00:54:54;;;;;;;4.20;3.90;;;;;;;;;;508147;28;1271;-75
2023/06/19 00:55:11;;;;;;;4.30;4.00;;;;;;;;;;509993;28;1158;-75
2023/06/19 00:55:32;;;;;;;4.50;4.10;;;;;;;;;;509800;28;980;-75
2023/06/19 00:55:48;;;;;;;4.38;3.97;;;;;;;;;;507025;28;1481;-75
2023/06/19 00:56:08;;;;;;;4.00;3.70;;;;;;;;;;506648;28;1430;-75
2023/06/19 00:56:24;;;;;;;4.00;3.70;;;;;;;;;;507862;28;1343;-76
2023/06/19 00:56:43;;;;;;;4.20;3.90;;;;;;;;;;506838;28;1483;-76
2023/06/19 00:57:00;;;;;;;4.40;4.00;;;;;;;;;;507079;28;1313;-75
2023/06/19 00:57:16;;;;;;;4.25;3.90;;;;;;;;;;507423;28;1477;-75
2023/06/19 00:57:32;;;;;;;4.07;3.78;;;;;;;;;;505376;28;1435;-75
2023/06/19 00:57:49;;;;;;;4.13;3.83;;;;;;;;;;505336;28;1355;-75
2023/06/19 00:58:06;;;;;;;4.30;3.95;;;;;;;;;;505100;28;1163;-75
2023/06/19 00:58:22;;;;;;;4.47;4.07;;;;;;;;;;506899;28;1374;-75
2023/06/19 00:58:38;;;;;;;4.63;4.22;;;;;;;;;;506943;28;1499;-75
2023/06/19 00:58:54;;;;;;;4.47;4.07;;;;;;;;;;507710;28;1439;-75
2023/06/19 00:59:18;;;;;;;5.00;4.30;;;;;;;;;;503379;28;1372;-76
2023/06/19 00:59:34;;;;;;;4.75;4.35;;;;;;;;;;503100;28;1361;-76
2023/06/19 00:59:51;;;;;;;4.80;4.40;;;;;;;;;;504814;28;1451;-75
2023/06/19 01:00:08;;;;;;;5.05;4.53;;;;;;;;;;503946;28;1456;-75
2023/06/19 01:00:23;;;;;;;5.28;4.45;;;;;;;;;;503974;28;1178;-76
2023/06/19 01:00:39;;;;;;;4.85;4.30;;;;;;;;;;504808;28;1276;-76
2023/06/19 01:00:58;;;;;;;4.80;4.38;;;;;;;;;;506561;28;1379;-75
2023/06/19 01:01:14;;;;;;;5.10;4.32;;;;;;;;;;505963;28;1597;-75
2023/06/19 01:02:10;;;;;;;4.67;4.23;;;;;;;;;;503935;28;1506;-75
2023/06/19 01:02:26;;;;;;;4.57;4.18;;;;;;;;;;504135;28;1283;-75
2023/06/19 01:02:42;;;;;;;4.90;4.40;;;;;;;;;;505555;28;1407;-76
2023/06/19 01:02:58;;;;;;;5.35;4.40;;;;;;;;;;508516;28;1353;-76
2023/06/19 01:03:15;;;;;;;4.60;4.18;;;;;;;;;;508757;28;1275;-75
2023/06/19 01:03:30;;;;;;;5.20;4.18;;;;;;;;;;507945;28;1265;-76
2023/06/19 01:03:46;;;;;;;5.85;4.35;;;;;;;;;;507763;28;1264;-75
2023/06/19 01:04:02;;;;;;;4.70;4.30;;;;;;;;;;507929;28;1303;-76
2023/06/19 01:04:18;;;;;;;5.10;4.53;;;;;;;;;;507630;28;1375;-75
2023/06/19 01:04:34;;;;;;;4.88;4.38;;;;;;;;;;507767;28;1287;-75
2023/06/19 01:04:53;;;;;;;4.40;4.10;;;;;;;;;;508386;28;1239;-76
2023/06/19 01:05:09;;;;;;;4.72;4.32;;;;;;;;;;506758;28;1058;-76
2023/06/19 01:05:25;;;;;;;4.70;4.20;;;;;;;;;;506036;28;1122;-76
2023/06/19 01:05:41;;;;;;;5.18;4.22;;;;;;;;;;507248;28;1164;-76
2023/06/19 01:06:02;;;;;;;5.15;4.45;;;;;;;;;;504352;28;1313;-76
2023/06/19 01:06:23;;;;;;;4.95;4.45;;;;;;;;;;504617;28;1442;-75
2023/06/19 01:06:58;;;;;;;4.65;4.25;;;;;;;;;;508584;28;1302;-75
2023/06/19 01:07:18;;;;;;;6.38;4.75;;;;;;;;;;509243;28;1431;-76
2023/06/19 01:07:42;;;;;;;6.88;4.72;;;;;;;;;;508992;28;1437;-76
2023/06/19 01:08:10;;;;;;;4.75;4.35;;;;;;;;;;508659;28;1256;-76
2023/06/19 01:08:34;;;;;;;5.07;4.68;;;;;;;;;;507707;28;1276;-75
2023/06/19 01:09:01;;;;;;;5.10;4.60;;;;;;;;;;505798;28;1205;-75
2023/06/19 01:09:21;;;;;;;4.82;4.43;;;;;;;;;;505451;28;1449;-75
2023/06/19 01:09:48;;;;;;;4.90;4.50;;;;;;;;;;505732;28;1542;-76
2023/06/19 01:10:09;;;;;;;5.45;4.53;;;;;;;;;;508481;28;1438;-77
2023/06/19 01:10:28;;;;;;;4.88;4.30;;;;;;;;;;506706;28;1562;-75
2023/06/19 01:10:49;;;;;;;5.22;4.32;;;;;;;;;;506664;28;1429;-76
2023/06/19 01:11:06;;;;;;;4.70;4.28;;;;;;;;;;506669;28;2095;-76
2023/06/19 01:11:25;;;;;;;4.70;4.30;;;;;;;;;;505154;28;1410;-76
2023/06/19 01:11:48;;;;;;;4.63;4.30;;;;;;;;;;505706;28;1222;-75
2023/06/19 01:12:12;;;;;;;4.80;4.40;;;;;;;;;;507545;28;967;-76
2023/06/19 01:12:34;;;;;;;4.77;4.37;;;;;;;;;;510281;28;1575;-76
2023/06/19 01:12:58;;;;;;;6.40;4.50;;;;;;;;;;510270;28;1243;-76
2023/06/19 01:13:24;;;;;;;4.85;4.32;;;;;;;;;;509985;28;1243;-75
2023/06/19 01:13:58;;;;;;;4.43;4.03;;;;;;;;;;509645;28;1513;-76
2023/06/19 01:14:19;;;;;;;4.70;4.30;;;;;;;;;;509309;28;1320;-76
2023/06/19 01:15:05;;;;;;;4.60;4.20;;;;;;;;;;509726;28;1455;-75
2023/06/19 01:15:22;;;;;;;4.53;4.13;;;;;;;;;;509876;28;1443;-75
2023/06/19 01:15:40;;;;;;;4.65;4.25;;;;;;;;;;507957;28;1517;-75
2023/06/19 01:15:57;;;;;;;5.30;4.20;;;;;;;;;;506767;28;1260;-75
2023/06/19 01:16:16;;;;;;;6.03;4.50;;;;;;;;;;508685;28;1156;-75
2023/06/19 01:16:33;;;;;;;4.75;4.30;;;;;;;;;;507676;28;1366;-75
2023/06/19 01:16:49;;;;;;;4.50;4.10;;;;;;;;;;507723;28;1267;-76
2023/06/19 01:17:06;;;;;;;4.53;4.13;;;;;;;;;;506610;28;1549;-76
2023/06/19 01:17:22;;;;;;;4.68;4.28;;;;;;;;;;504456;28;1178;-76
2023/06/19 01:17:38;;;;;;;4.90;4.50;;;;;;;;;;506126;28;1297;-75
2023/06/19 01:17:57;;;;;;;4.85;4.40;;;;;;;;;;508289;28;1351;-75
2023/06/19 01:18:15;;;;;;;5.07;4.47;;;;;;;;;;507287;28;1373;-75
2023/06/19 01:18:32;;;;;;;5.38;4.50;;;;;;;;;;508311;28;1343;-76
2023/06/19 01:18:49;;;;;;;4.60;4.20;;;;;;;;;;507621;28;1114;-75
2023/06/19 01:19:09;;;;;;;4.60;4.20;;;;;;;;;;508435;28;1383;-75
2023/06/19 01:19:26;;;;;;;4.75;4.32;;;;;;;;;;510539;28;1121;-75
2023/06/19 01:19:42;;;;;;;5.70;4.30;;;;;;;;;;511082;28;1424;-75
2023/06/19 01:19:58;;;;;;;6.40;4.45;;;;;;;;;;508528;28;1435;-74
2023/06/19 01:20:35;;;;;;;5.75;4.28;;;;;;;;;;507873;28;1406;-75
2023/06/19 01:20:51;;;;;;;4.72;4.32;;;;;;;;;;504477;28;1280;-75
2023/06/19 01:21:15;;;;;;;4.72;4.32;;;;;;;;;;508690;28;1164;-76
2023/06/19 01:21:31;;;;;;;5.05;4.40;;;;;;;;;;506558;28;1350;-75
2023/06/19 01:21:48;;;;;;;4.70;4.30;;;;;;;;;;506761;28;1355;-75
2023/06/19 01:22:05;;;;;;;4.50;4.10;;;;;;;;;;507096;28;1411;-75
2023/06/19 01:22:28;;;;;;;4.57;4.18;;;;;;;;;;505259;28;1523;-75
2023/06/19 01:22:46;;;;;;;4.53;4.03;;;;;;;;;;506163;28;1448;-76
2023/06/19 01:23:10;;;;;;;4.63;4.22;;;;;;;;;;508083;28;1537;-76
2023/06/19 01:23:26;;;;;;;4.55;4.15;;;;;;;;;;507400;28;1126;-75
2023/06/19 01:23:42;;;;;;;4.40;4.00;;;;;;;;;;506803;28;1461;-76
2023/06/19 01:23:57;;;;;;;4.57;4.18;;;;;;;;;;507663;28;1503;-76
2023/06/19 01:24:13;;;;;;;4.68;4.25;;;;;;;;;;507417;28;1278;-76
2023/06/19 01:24:29;;;;;;;4.80;4.30;;;;;;;;;;507625;28;1513;-75
2023/06/19 01:24:45;;;;;;;4.78;4.35;;;;;;;;;;509095;28;1107;-76
2023/06/19 01:25:01;;;;;;;5.00;4.40;;;;;;;;;;508217;28;1302;-75
2023/06/19 01:25:19;;;;;;;5.00;4.40;;;;;;;;;;507384;28;1287;-75
2023/06/19 01:25:35;;;;;;;5.78;4.20;;;;;;;;;;505699;28;1483;-76
2023/06/19 01:25:54;;;;;;;5.37;4.07;;;;;;;;;;508816;28;1279;-75
2023/06/19 01:26:10;;;;;;;4.57;4.18;;;;;;;;;;507206;28;1606;-76
2023/06/19 01:26:27;;;;;;;4.70;4.30;;;;;;;;;;507323;28;2015;-75
2023/06/19 01:27:03;;;;;;;4.70;4.30;;;;;;;;;;507485;28;1279;-75
2023/06/19 01:27:19;;;;;;;4.55;4.15;;;;;;;;;;508014;28;1403;-75
2023/06/19 01:27:35;;;;;;;4.55;4.15;;;;;;;;;;507373;28;1362;-74
2023/06/19 01:27:51;;;;;;;4.70;4.30;;;;;;;;;;509410;28;983;-74
2023/06/19 01:28:10;;;;;;;4.82;4.43;;;;;;;;;;510149;28;1105;-75
2023/06/19 01:28:28;;;;;;;4.85;4.40;;;;;;;;;;509711;28;1392;-75
2023/06/19 01:28:45;;;;;;;4.60;4.20;;;;;;;;;;509464;28;1386;-75
2023/06/19 01:29:01;;;;;;;4.80;4.40;;;;;;;;;;509260;28;1546;-75
2023/06/19 01:29:20;;;;;;;5.03;4.53;;;;;;;;;;509621;28;1472;-75
2023/06/19 01:29:36;;;;;;;5.00;4.50;;;;;;;;;;508502;28;1298;-75
2023/06/19 01:29:55;;;;;;;4.88;4.35;;;;;;;;;;508802;28;1312;-75
2023/06/19 01:30:12;;;;;;;4.85;4.40;;;;;;;;;;508204;28;1314;-75
2023/06/19 01:30:34;;;;;;;4.85;4.45;;;;;;;;;;505773;28;1501;-75
2023/06/19 01:30:51;;;;;;;4.63;4.22;;;;;;;;;;503858;28;1408;-75
2023/06/19 01:31:13;;;;;;;4.18;3.88;;;;;;;;;;506542;28;1209;-75
2023/06/19 01:31:41;;;;;;;4.30;3.95;;;;;;;;;;506951;28;1491;-75
2023/06/19 01:32:06;;;;;;;4.50;4.10;;;;;;;;;;504425;28;1304;-75
2023/06/19 01:32:41;;;;;;;4.45;4.05;;;;;;;;;;506383;28;1412;-74
2023/06/19 01:33:03;;;;;;;4.60;4.20;;;;;;;;;;508501;28;1148;-75
2023/06/19 01:33:29;;;;;;;4.35;4.05;;;;;;;;;;508554;28;1445;-75
2023/06/19 01:33:46;;;;;;;4.30;4.00;;;;;;;;;;509722;28;1326;-74
2023/06/19 01:34:06;;;;;;;4.45;4.05;;;;;;;;;;508769;28;932;-75
2023/06/19 01:34:25;;;;;;;4.60;4.18;;;;;;;;;;510240;28;1320;-75
2023/06/19 01:34:41;;;;;;;4.57;4.18;;;;;;;;;;508654;28;1267;-75
2023/06/19 01:34:59;;;;;;;4.43;4.03;;;;;;;;;;505239;28;1178;-75
2023/06/19 01:35:19;;;;;;;4.45;4.05;;;;;;;;;;505601;28;1347;-75
2023/06/19 01:35:38;;;;;;;4.60;4.20;;;;;;;;;;506055;28;1177;-74
2023/06/19 01:35:57;;;;;;;4.40;4.10;;;;;;;;;;506589;28;1512;-75
2023/06/19 01:36:17;;;;;;;4.30;4.00;;;;;;;;;;506273;28;1383;-75
2023/06/19 01:36:34;;;;;;;4.50;4.10;;;;;;;;;;508100;28;1623;-75
2023/06/19 01:36:50;;;;;;;4.60;4.20;;;;;;;;;;507272;28;1197;-75
2023/06/19 01:37:07;;;;;;;4.63;4.22;;;;;;;;;;507493;28;1321;-75
2023/06/19 01:37:28;;;;;;;4.80;4.30;;;;;;;;;;508318;28;1371;-75
2023/06/19 01:37:49;;;;;;;5.68;4.40;;;;;;;;;;507462;28;1509;-74
2023/06/19 01:38:06;;;;;;;4.97;4.40;;;;;;;;;;508144;28;1523;-75
2023/06/19 01:38:25;;;;;;;5.00;4.38;;;;;;;;;;510172;28;1341;-75
2023/06/19 01:38:41;;;;;;;4.53;4.13;;;;;;;;;;504979;28;1110;-74
2023/06/19 01:38:58;;;;;;;4.75;4.32;;;;;;;;;;504529;28;1260;-75
2023/06/19 01:39:15;;;;;;;4.90;4.40;;;;;;;;;;504980;28;1458;-75
2023/06/19 01:39:32;;;;;;;4.70;4.30;;;;;;;;;;505128;28;1555;-76
2023/06/19 01:39:49;;;;;;;4.90;4.50;;;;;;;;;;504277;28;1622;-75
2023/06/19 01:40:09;;;;;;;5.07;4.57;;;;;;;;;;502612;28;1264;-75
2023/06/19 01:40:27;;;;;;;5.10;4.57;;;;;;;;;;503450;28;1363;-75
2023/06/19 01:40:43;;;;;;;4.95;4.45;;;;;;;;;;505646;28;1415;-75
2023/06/19 01:41:00;;;;;;;4.72;4.32;;;;;;;;;;506139;28;1377;-75
2023/06/19 01:41:18;;;;;;;5.03;4.53;;;;;;;;;;506550;28;1130;-75
2023/06/19 01:41:34;;;;;;;5.70;4.37;;;;;;;;;;502174;28;1213;-75
2023/06/19 01:41:51;;;;;;;4.82;4.35;;;;;;;;;;503634;28;1390;-75
2023/06/19 01:42:11;;;;;;;4.43;4.10;;;;;;;;;;503363;28;1292;-75
2023/06/19 01:42:27;;;;;;;4.45;4.05;;;;;;;;;;505561;28;1336;-75
2023/06/19 01:42:43;;;;;;;4.75;4.25;;;;;;;;;;507034;28;1442;-75
2023/06/19 01:43:04;;;;;;;4.78;4.30;;;;;;;;;;505146;28;1378;-75
2023/06/19 01:43:20;;;;;;;4.80;4.40;;;;;;;;;;505449;28;1429;-75
2023/06/19 01:43:37;;;;;;;4.72;4.32;;;;;;;;;;508215;28;1525;-75
2023/06/19 01:43:53;;;;;;;4.50;4.10;;;;;;;;;;509088;28;984;-75
2023/06/19 01:44:09;;;;;;;4.00;3.70;;;;;;;;;;507168;28;1180;-76
2023/06/19 01:44:26;;;;;;;3.97;3.67;;;;;;;;;;504397;28;1244;-76
2023/06/19 01:44:42;;;;;;;4.10;3.80;;;;;;;;;;505056;28;1413;-76
2023/06/19 01:44:57;;;;;;;4.40;4.00;;;;;;;;;;506079;28;1336;-75
2023/06/19 01:45:13;;;;;;;4.43;4.03;;;;;;;;;;506440;28;1328;-75
2023/06/19 01:45:30;;;;;;;4.45;4.13;;;;;;;;;;505195;28;1150;-76
2023/06/19 01:45:49;;;;;;;4.63;4.22;;;;;;;;;;504292;28;1526;-76
2023/06/19 01:46:10;;;;;;;4.60;4.20;;;;;;;;;;503669;28;1366;-75
2023/06/19 01:46:26;;;;;;;4.40;4.00;;;;;;;;;;506272;28;1914;-75
2023/06/19 01:46:42;;;;;;;4.50;4.10;;;;;;;;;;506630;28;1386;-75
2023/06/19 01:46:58;;;;;;;4.70;4.30;;;;;;;;;;509467;28;1240;-75
2023/06/19 01:47:16;;;;;;;4.67;4.27;;;;;;;;;;508401;28;1520;-75
2023/06/19 01:47:32;;;;;;;4.70;4.30;;;;;;;;;;506406;28;1338;-75
2023/06/19 01:47:48;;;;;;;4.55;4.15;;;;;;;;;;504238;28;1401;-75
2023/06/19 01:48:04;;;;;;;4.30;4.00;;;;;;;;;;507799;28;1222;-75
2023/06/19 01:48:20;;;;;;;4.60;4.20;;;;;;;;;;507443;28;1002;-75
2023/06/19 01:48:39;;;;;;;4.90;4.40;;;;;;;;;;503801;28;1350;-75
2023/06/19 01:48:55;;;;;;;4.60;4.20;;;;;;;;;;502043;28;1470;-75
2023/06/19 01:49:14;;;;;;;4.13;3.80;;;;;;;;;;504839;28;1577;-75
2023/06/19 01:49:29;;;;;;;4.35;4.05;;;;;;;;;;506776;28;1440;-76
2023/06/19 01:49:47;;;;;;;4.63;4.23;;;;;;;;;;510280;28;1386;-75
2023/06/19 01:50:04;;;;;;;4.28;3.95;;;;;;;;;;505697;28;1335;-75
2023/06/19 01:50:21;;;;;;;4.40;4.00;;;;;;;;;;505991;28;1464;-75
2023/06/19 01:50:37;;;;;;;4.60;4.20;;;;;;;;;;505648;28;1416;-76
2023/06/19 01:50:55;;;;;;;4.60;4.20;;;;;;;;;;504748;28;1472;-75
2023/06/19 01:51:11;;;;;;;4.40;4.00;;;;;;;;;;502749;28;1307;-76
2023/06/19 01:51:27;;;;;;;4.45;4.05;;;;;;;;;;505342;28;1388;-76
2023/06/19 01:51:42;;;;;;;4.30;4.00;;;;;;;;;;504348;28;1469;-75
2023/06/19 01:52:00;;;;;;;4.20;3.90;;;;;;;;;;504525;28;1231;-76
2023/06/19 01:52:16;;;;;;;4.82;4.15;;;;;;;;;;504692;28;1358;-75
2023/06/19 01:52:52;;;;;;;5.30;4.20;;;;;;;;;;505604;28;1308;-75
2023/06/19 01:53:08;;;;;;;4.70;4.25;;;;;;;;;;503621;28;1292;-76